メインページ
METAR-TAF:

METAR-TAF

空港 :

テグシガルパ, ホンジュラス

トンコンティン国際空港

緯度: 14-03N, 経度: 087-13W, 海抜: 994m

現時点の気象観測

当レポートは2時間9分前の09:00(UTC)に作成
無風
気温 19°C
湿度 100%
気圧 1018 hPa
視程: 4000m
高度600ftの雲はほとんどない
高度2600ftの雲は散在している
高度8000ftの雲は散在している

METAR: MHTG 200900Z 00000KT 8000 4000SW BR FEW006 SCT026 SCT080 19/19 Q1018 A3006 NOSIG

時間: 05:09 (11:09 UTC)

予報

当レポートは6時間44分前の04:25(UTC)に作成
予報は20日の 06時(UTC)から 21日の 06時(UTC)まで有効
変向風 2kt
視程10km以上
高度2800ftの雲は散在している
高度8000ftの雲は散在している
20日の 09時(UTC)から 20日の 11時(UTC)まで徐々に
視程: 5000m
高度400ftの雲はほとんどない
高度2200ftの千切れ雲あり
20日の 14時(UTC)から 20日の 16時(UTC)まで徐々に
の風 5kt
視程10km以上
高度2600ftの雲は散在している, 塔状積雲.
高度9000ftの雲は散在している
20日の 19時(UTC)から 21日の 01時(UTC)まで一時的に
視程: 5000m
高度2800ftの雲は散在している, 積乱雲.
高度3000ftの雲は散在している, 塔状積雲.
高度8000ftの雲は散在している
激しい雷雨, 雨
21日の 03時(UTC)から 21日の 05時(UTC)まで徐々に
の風 kt
視程: 7000m
高度2400ftの雲は散在している
高度8000ftの千切れ雲あり
近辺でにわか雨

TAF: MHTG 200425Z 2006/2106 VRB02KT 9999 SCT028 SCT080 TX28/2019Z TN18/2012Z BECMG 2009/2011 5000 BR FEW004 BKN022 BECMG 2014/2016 19005KT 9999 NSW SCT026TCU SCT090 TEMPO 2019/2101 5000 TSRA SCT028CB SCT030TCU SCT080 BECMG 2103/2105 00000KT 7000 VCSH SCT024 BKN080

4,000以上の空港の気象観測と天気予報(METAR報とTAF報)

利用可能な観測所は地図上に黄色い丸と赤い丸で示す。

丸の上にカーソルを重ねると観測所名を参照できる。

次にクリックすると気象観測と天気予報を参照できる。

マップの切り替え:黒色「×」印の緑ボタンをクリックして拡大、「-」印の緑ボタンをクリックして縮小、緑色の三角印をクリックして隣りの地図に切り替え


METAR-TAF: